sensor_id;sensor_type;location;lat;lon;timestamp;pressure;altitude;pressure_sealevel;temperature;humidity
59831;BME280;45711;50.108;13.712;2024-01-30T00:02:16;99617.06;;;-2.02;100.00
59831;BME280;45711;50.108;13.712;2024-01-30T00:04:43;99615.47;;;-1.94;100.00
59831;BME280;45711;50.108;13.712;2024-01-30T00:07:08;99618.91;;;-1.94;100.00
59831;BME280;45711;50.108;13.712;2024-01-30T00:09:34;99613.00;;;-1.96;100.00
59831;BME280;45711;50.108;13.712;2024-01-30T00:11:59;99624.09;;;-2.02;100.00
59831;BME280;45711;50.108;13.712;2024-01-30T00:14:25;99625.28;;;-1.96;100.00
59831;BME280;45711;50.108;13.712;2024-01-30T00:16:51;99632.03;;;-1.94;100.00
59831;BME280;45711;50.108;13.712;2024-01-30T00:19:16;99622.34;;;-1.93;100.00
59831;BME280;45711;50.108;13.712;2024-01-30T00:21:43;99623.34;;;-1.94;100.00
59831;BME280;45711;50.108;13.712;2024-01-30T00:24:09;99626.13;;;-1.88;100.00
59831;BME280;45711;50.108;13.712;2024-01-30T00:26:35;99619.25;;;-1.89;100.00
59831;BME280;45711;50.108;13.712;2024-01-30T00:29:00;99617.63;;;-1.90;100.00
59831;BME280;45711;50.108;13.712;2024-01-30T00:31:26;99621.06;;;-1.89;100.00
59831;BME280;45711;50.108;13.712;2024-01-30T00:33:52;99621.41;;;-1.84;100.00
59831;BME280;45711;50.108;13.712;2024-01-30T00:36:17;99617.91;;;-1.93;100.00
59831;BME280;45711;50.108;13.712;2024-01-30T00:38:44;99624.66;;;-1.90;100.00
59831;BME280;45711;50.108;13.712;2024-01-30T00:41:10;99621.53;;;-1.94;100.00
59831;BME280;45711;50.108;13.712;2024-01-30T00:43:36;99618.94;;;-1.86;100.00
59831;BME280;45711;50.108;13.712;2024-01-30T00:46:01;99620.41;;;-1.83;100.00
59831;BME280;45711;50.108;13.712;2024-01-30T00:48:27;99621.91;;;-1.81;100.00
59831;BME280;45711;50.108;13.712;2024-01-30T00:50:52;99612.66;;;-1.93;100.00
59831;BME280;45711;50.108;13.712;2024-01-30T00:53:18;99617.22;;;-2.03;100.00
59831;BME280;45711;50.108;13.712;2024-01-30T00:55:45;99606.78;;;-1.95;100.00
59831;BME280;45711;50.108;13.712;2024-01-30T00:58:11;99608.25;;;-1.92;100.00
59831;BME280;45711;50.108;13.712;2024-01-30T01:00:37;99600.78;;;-2.05;100.00
59831;BME280;45711;50.108;13.712;2024-01-30T01:03:02;99613.19;;;-1.89;100.00
59831;BME280;45711;50.108;13.712;2024-01-30T01:05:28;99612.19;;;-1.88;100.00
59831;BME280;45711;50.108;13.712;2024-01-30T01:07:54;99613.00;;;-1.96;100.00
59831;BME280;45711;50.108;13.712;2024-01-30T01:10:20;99597.88;;;-2.02;100.00
59831;BME280;45711;50.108;13.712;2024-01-30T01:12:47;99607.13;;;-1.90;100.00
59831;BME280;45711;50.108;13.712;2024-01-30T01:15:13;99596.63;;;-1.90;100.00
59831;BME280;45711;50.108;13.712;2024-01-30T01:17:39;99588.44;;;-1.87;100.00
59831;BME280;45711;50.108;13.712;2024-01-30T01:20:06;99597.56;;;-1.99;100.00
59831;BME280;45711;50.108;13.712;2024-01-30T01:22:32;99588.03;;;-2.34;100.00
59831;BME280;45711;50.108;13.712;2024-01-30T01:24:58;99588.16;;;-2.36;100.00
59831;BME280;45711;50.108;13.712;2024-01-30T01:27:24;99591.00;;;-2.29;100.00
59831;BME280;45711;50.108;13.712;2024-01-30T01:29:51;99593.47;;;-2.28;100.00
59831;BME280;45711;50.108;13.712;2024-01-30T01:32:17;99587.41;;;-2.28;100.00
59831;BME280;45711;50.108;13.712;2024-01-30T01:34:43;99589.50;;;-2.32;100.00
59831;BME280;45711;50.108;13.712;2024-01-30T01:37:09;99595.72;;;-2.33;100.00
59831;BME280;45711;50.108;13.712;2024-01-30T01:39:34;99587.63;;;-2.21;100.00
59831;BME280;45711;50.108;13.712;2024-01-30T01:42:00;99592.28;;;-2.07;100.00
59831;BME280;45711;50.108;13.712;2024-01-30T01:44:26;99590.38;;;-2.23;100.00
59831;BME280;45711;50.108;13.712;2024-01-30T01:46:54;99589.16;;;-2.37;100.00
59831;BME280;45711;50.108;13.712;2024-01-30T01:49:20;99591.25;;;-2.40;100.00
59831;BME280;45711;50.108;13.712;2024-01-30T01:51:47;99593.06;;;-2.41;100.00
59831;BME280;45711;50.108;13.712;2024-01-30T01:54:14;99576.34;;;-2.40;100.00
59831;BME280;45711;50.108;13.712;2024-01-30T01:56:42;99591.00;;;-2.29;100.00
59831;BME280;45711;50.108;13.712;2024-01-30T01:59:08;99583.94;;;-2.29;100.00
59831;BME280;45711;50.108;13.712;2024-01-30T02:01:34;99585.88;;;-2.39;100.00
59831;BME280;45711;50.108;13.712;2024-01-30T02:04:03;99584.00;;;-2.20;100.00
59831;BME280;45711;50.108;13.712;2024-01-30T02:06:28;99585.59;;;-2.28;100.00
59831;BME280;45711;50.108;13.712;2024-01-30T02:08:54;99583.31;;;-2.22;100.00
59831;BME280;45711;50.108;13.712;2024-01-30T02:11:20;99577.88;;;-2.29;100.00
59831;BME280;45711;50.108;13.712;2024-01-30T02:13:46;99573.41;;;-2.37;100.00
59831;BME280;45711;50.108;13.712;2024-01-30T02:16:12;99576.56;;;-2.33;100.00
59831;BME280;45711;50.108;13.712;2024-01-30T02:18:37;99578.75;;;-2.46;100.00
59831;BME280;45711;50.108;13.712;2024-01-30T02:21:08;99579.06;;;-2.49;100.00
59831;BME280;45711;50.108;13.712;2024-01-30T02:23:34;99577.78;;;-2.19;100.00
59831;BME280;45711;50.108;13.712;2024-01-30T02:26:00;99581.63;;;-2.32;100.00
59831;BME280;45711;50.108;13.712;2024-01-30T02:28:25;99582.16;;;-2.28;100.00
59831;BME280;45711;50.108;13.712;2024-01-30T02:30:51;99583.31;;;-2.31;100.00
59831;BME280;45711;50.108;13.712;2024-01-30T02:33:17;99582.09;;;-2.36;100.00
59831;BME280;45711;50.108;13.712;2024-01-30T02:35:42;99574.41;;;-2.38;100.00
59831;BME280;45711;50.108;13.712;2024-01-30T02:38:09;99571.38;;;-2.51;100.00
59831;BME280;45711;50.108;13.712;2024-01-30T02:40:35;99567.53;;;-2.39;100.00
59831;BME280;45711;50.108;13.712;2024-01-30T02:43:02;99561.00;;;-2.35;100.00
59831;BME280;45711;50.108;13.712;2024-01-30T02:45:28;99562.47;;;-2.32;100.00
59831;BME280;45711;50.108;13.712;2024-01-30T02:47:53;99566.72;;;-2.31;100.00
59831;BME280;45711;50.108;13.712;2024-01-30T02:50:19;99567.06;;;-2.34;100.00
59831;BME280;45711;50.108;13.712;2024-01-30T02:52:45;99559.31;;;-2.36;100.00
59831;BME280;45711;50.108;13.712;2024-01-30T02:55:12;99563.91;;;-2.38;100.00
59831;BME280;45711;50.108;13.712;2024-01-30T02:57:38;99566.88;;;-2.33;100.00
59831;BME280;45711;50.108;13.712;2024-01-30T03:00:04;99562.00;;;-2.28;100.00
59831;BME280;45711;50.108;13.712;2024-01-30T03:02:31;99559.84;;;-2.32;100.00
59831;BME280;45711;50.108;13.712;2024-01-30T03:04:57;99556.66;;;-2.44;100.00
59831;BME280;45711;50.108;13.712;2024-01-30T03:07:22;99561.59;;;-2.41;100.00
59831;BME280;45711;50.108;13.712;2024-01-30T03:09:48;99554.88;;;-2.43;100.00
59831;BME280;45711;50.108;13.712;2024-01-30T03:12:15;99559.78;;;-2.40;100.00
59831;BME280;45711;50.108;13.712;2024-01-30T03:14:41;99562.63;;;-2.34;100.00
59831;BME280;45711;50.108;13.712;2024-01-30T03:17:06;99557.56;;;-2.53;100.00
59831;BME280;45711;50.108;13.712;2024-01-30T03:19:32;99558.56;;;-2.54;100.00
59831;BME280;45711;50.108;13.712;2024-01-30T03:21:58;99555.06;;;-2.37;100.00
59831;BME280;45711;50.108;13.712;2024-01-30T03:24:23;99547.91;;;-2.53;100.00
59831;BME280;45711;50.108;13.712;2024-01-30T03:26:49;99549.34;;;-2.58;100.00
59831;BME280;45711;50.108;13.712;2024-01-30T03:29:16;99549.47;;;-2.68;100.00
59831;BME280;45711;50.108;13.712;2024-01-30T03:31:41;99543.69;;;-2.71;100.00
59831;BME280;45711;50.108;13.712;2024-01-30T03:34:07;99548.38;;;-2.57;100.00
59831;BME280;45711;50.108;13.712;2024-01-30T03:36:33;99541.25;;;-2.73;100.00
59831;BME280;45711;50.108;13.712;2024-01-30T03:38:59;99536.72;;;-2.63;100.00
59831;BME280;45711;50.108;13.712;2024-01-30T03:41:25;99543.75;;;-2.63;100.00
59831;BME280;45711;50.108;13.712;2024-01-30T03:43:50;99541.50;;;-2.58;100.00
59831;BME280;45711;50.108;13.712;2024-01-30T03:46:18;99547.19;;;-2.63;100.00
59831;BME280;45711;50.108;13.712;2024-01-30T03:48:44;99537.53;;;-2.62;100.00
59831;BME280;45711;50.108;13.712;2024-01-30T03:51:10;99538.22;;;-2.60;100.00
59831;BME280;45711;50.108;13.712;2024-01-30T03:53:39;99540.16;;;-2.62;100.00
59831;BME280;45711;50.108;13.712;2024-01-30T03:56:05;99540.72;;;-2.76;100.00
59831;BME280;45711;50.108;13.712;2024-01-30T03:58:31;99539.91;;;-2.77;100.00
59831;BME280;45711;50.108;13.712;2024-01-30T04:00:56;99550.56;;;-2.70;100.00
59831;BME280;45711;50.108;13.712;2024-01-30T04:03:24;99543.41;;;-2.68;100.00
59831;BME280;45711;50.108;13.712;2024-01-30T04:05:51;99540.94;;;-2.70;100.00
59831;BME280;45711;50.108;13.712;2024-01-30T04:08:16;99542.41;;;-2.67;100.00
59831;BME280;45711;50.108;13.712;2024-01-30T04:10:42;99540.47;;;-2.65;100.00
59831;BME280;45711;50.108;13.712;2024-01-30T04:13:08;99539.09;;;-2.78;100.00
59831;BME280;45711;50.108;13.712;2024-01-30T04:15:34;99540.50;;;-2.83;100.00
59831;BME280;45711;50.108;13.712;2024-01-30T04:18:00;99534.66;;;-2.77;100.00
59831;BME280;45711;50.108;13.712;2024-01-30T04:20:27;99540.88;;;-2.78;100.00
59831;BME280;45711;50.108;13.712;2024-01-30T04:22:52;99538.31;;;-2.70;100.00
59831;BME280;45711;50.108;13.712;2024-01-30T04:25:18;99544.69;;;-2.72;100.00
59831;BME280;45711;50.108;13.712;2024-01-30T04:27:44;99535.88;;;-2.89;100.00
59831;BME280;45711;50.108;13.712;2024-01-30T04:30:10;99544.78;;;-2.82;100.00
59831;BME280;45711;50.108;13.712;2024-01-30T04:32:37;99540.00;;;-2.87;100.00
59831;BME280;45711;50.108;13.712;2024-01-30T04:35:03;99539.31;;;-2.89;100.00
59831;BME280;45711;50.108;13.712;2024-01-30T04:37:30;99538.44;;;-2.97;100.00
59831;BME280;45711;50.108;13.712;2024-01-30T04:39:58;99544.19;;;-2.94;100.00
59831;BME280;45711;50.108;13.712;2024-01-30T04:42:24;99550.38;;;-2.77;100.00
59831;BME280;45711;50.108;13.712;2024-01-30T04:44:50;99544.44;;;-2.79;100.00
59831;BME280;45711;50.108;13.712;2024-01-30T04:47:15;99544.31;;;-2.78;100.00
59831;BME280;45711;50.108;13.712;2024-01-30T04:49:41;99549.63;;;-2.69;100.00
59831;BME280;45711;50.108;13.712;2024-01-30T04:52:07;99552.78;;;-2.58;100.00
59831;BME280;45711;50.108;13.712;2024-01-30T04:54:35;99547.06;;;-2.61;100.00
59831;BME280;45711;50.108;13.712;2024-01-30T04:57:00;99553.88;;;-2.68;100.00
59831;BME280;45711;50.108;13.712;2024-01-30T04:59:26;99549.00;;;-2.63;100.00
59831;BME280;45711;50.108;13.712;2024-01-30T05:01:52;99560.75;;;-2.67;100.00
59831;BME280;45711;50.108;13.712;2024-01-30T05:04:18;99551.19;;;-2.76;100.00
59831;BME280;45711;50.108;13.712;2024-01-30T05:06:44;99558.19;;;-2.59;100.00
59831;BME280;45711;50.108;13.712;2024-01-30T05:09:10;99557.53;;;-2.61;100.00
59831;BME280;45711;50.108;13.712;2024-01-30T05:11:38;99554.94;;;-2.61;100.00
59831;BME280;45711;50.108;13.712;2024-01-30T05:14:04;99556.38;;;-2.85;100.00
59831;BME280;45711;50.108;13.712;2024-01-30T05:16:30;99555.41;;;-2.84;100.00
59831;BME280;45711;50.108;13.712;2024-01-30T05:18:55;99560.28;;;-2.89;100.00
59831;BME280;45711;50.108;13.712;2024-01-30T05:21:21;99546.88;;;-2.86;100.00
59831;BME280;45711;50.108;13.712;2024-01-30T05:23:46;99550.47;;;-2.87;100.00
59831;BME280;45711;50.108;13.712;2024-01-30T05:26:12;99549.69;;;-2.79;100.00
59831;BME280;45711;50.108;13.712;2024-01-30T05:28:39;99547.41;;;-2.82;100.00
59831;BME280;45711;50.108;13.712;2024-01-30T05:31:06;99551.81;;;-2.83;100.00
59831;BME280;45711;50.108;13.712;2024-01-30T05:33:32;99546.47;;;-2.73;100.00
59831;BME280;45711;50.108;13.712;2024-01-30T05:36:00;99546.31;;;-2.71;100.00
59831;BME280;45711;50.108;13.712;2024-01-30T05:38:28;99540.19;;;-2.80;100.00
59831;BME280;45711;50.108;13.712;2024-01-30T05:40:54;99547.19;;;-2.89;100.00
59831;BME280;45711;50.108;13.712;2024-01-30T05:43:23;99551.81;;;-3.00;100.00
59831;BME280;45711;50.108;13.712;2024-01-30T05:45:51;99552.66;;;-3.00;100.00
59831;BME280;45711;50.108;13.712;2024-01-30T05:48:17;99558.09;;;-2.93;100.00
59831;BME280;45711;50.108;13.712;2024-01-30T05:50:51;99557.94;;;-2.92;100.00
59831;BME280;45711;50.108;13.712;2024-01-30T05:53:17;99555.56;;;-2.85;100.00
59831;BME280;45711;50.108;13.712;2024-01-30T05:55:43;99554.66;;;-2.94;100.00
59831;BME280;45711;50.108;13.712;2024-01-30T05:58:11;99552.03;;;-2.76;100.00
59831;BME280;45711;50.108;13.712;2024-01-30T06:00:37;99553.09;;;-2.87;100.00
59831;BME280;45711;50.108;13.712;2024-01-30T06:03:07;99557.81;;;-2.90;100.00
59831;BME280;45711;50.108;13.712;2024-01-30T06:05:33;99559.75;;;-2.92;100.00
59831;BME280;45711;50.108;13.712;2024-01-30T06:07:59;99565.88;;;-2.84;100.00
59831;BME280;45711;50.108;13.712;2024-01-30T06:10:24;99563.25;;;-2.84;100.00
59831;BME280;45711;50.108;13.712;2024-01-30T06:12:50;99558.84;;;-2.83;100.00
59831;BME280;45711;50.108;13.712;2024-01-30T06:15:16;99559.69;;;-2.83;100.00
59831;BME280;45711;50.108;13.712;2024-01-30T06:17:41;99562.00;;;-2.97;100.00
59831;BME280;45711;50.108;13.712;2024-01-30T06:20:09;99560.13;;;-2.87;100.00
59831;BME280;45711;50.108;13.712;2024-01-30T06:22:34;99552.88;;;-2.93;100.00
59831;BME280;45711;50.108;13.712;2024-01-30T06:25:00;99559.00;;;-2.85;100.00
59831;BME280;45711;50.108;13.712;2024-01-30T06:27:26;99564.47;;;-2.78;100.00
59831;BME280;45711;50.108;13.712;2024-01-30T06:29:51;99565.56;;;-2.81;100.00
59831;BME280;45711;50.108;13.712;2024-01-30T06:32:17;99570.66;;;-2.79;100.00
59831;BME280;45711;50.108;13.712;2024-01-30T06:34:43;99560.63;;;-2.84;100.00
59831;BME280;45711;50.108;13.712;2024-01-30T06:37:11;99568.25;;;-2.72;100.00
59831;BME280;45711;50.108;13.712;2024-01-30T06:39:36;99577.00;;;-2.64;100.00
59831;BME280;45711;50.108;13.712;2024-01-30T06:42:05;99565.81;;;-2.74;100.00
59831;BME280;45711;50.108;13.712;2024-01-30T06:44:31;99575.44;;;-2.74;100.00
59831;BME280;45711;50.108;13.712;2024-01-30T06:46:56;99574.13;;;-2.79;100.00
59831;BME280;45711;50.108;13.712;2024-01-30T06:49:22;99572.56;;;-2.89;100.00
59831;BME280;45711;50.108;13.712;2024-01-30T06:51:47;99575.53;;;-2.84;100.00
59831;BME280;45711;50.108;13.712;2024-01-30T06:54:14;99577.34;;;-2.85;100.00
59831;BME280;45711;50.108;13.712;2024-01-30T06:56:40;99580.13;;;-2.86;100.00
59831;BME280;45711;50.108;13.712;2024-01-30T06:59:06;99579.94;;;-2.67;100.00
59831;BME280;45711;50.108;13.712;2024-01-30T07:01:32;99582.72;;;-2.68;100.00
59831;BME280;45711;50.108;13.712;2024-01-30T07:03:58;99583.75;;;-2.61;100.00
59831;BME280;45711;50.108;13.712;2024-01-30T07:06:23;99581.72;;;-2.67;100.00
59831;BME280;45711;50.108;13.712;2024-01-30T07:08:49;99579.22;;;-2.77;100.00
59831;BME280;45711;50.108;13.712;2024-01-30T07:11:20;99582.66;;;-2.76;100.00
59831;BME280;45711;50.108;13.712;2024-01-30T07:13:47;99583.22;;;-2.65;100.00
59831;BME280;45711;50.108;13.712;2024-01-30T07:16:13;99582.41;;;-2.65;100.00
59831;BME280;45711;50.108;13.712;2024-01-30T07:18:39;99579.63;;;-2.64;100.00
59831;BME280;45711;50.108;13.712;2024-01-30T07:21:05;99583.06;;;-2.63;100.00
59831;BME280;45711;50.108;13.712;2024-01-30T07:23:30;99587.44;;;-2.72;100.00
59831;BME280;45711;50.108;13.712;2024-01-30T07:25:56;99584.91;;;-2.82;100.00
59831;BME280;45711;50.108;13.712;2024-01-30T07:28:23;99590.69;;;-2.52;100.00
59831;BME280;45711;50.108;13.712;2024-01-30T07:30:49;99581.13;;;-2.61;100.00
59831;BME280;45711;50.108;13.712;2024-01-30T07:33:15;99582.41;;;-2.65;100.00
59831;BME280;45711;50.108;13.712;2024-01-30T07:35:41;99576.50;;;-2.67;100.00
59831;BME280;45711;50.108;13.712;2024-01-30T07:38:07;99578.94;;;-2.48;100.00
59831;BME280;45711;50.108;13.712;2024-01-30T07:40:32;99577.84;;;-2.63;100.00
59831;BME280;45711;50.108;13.712;2024-01-30T07:42:58;99570.38;;;-2.50;100.00
59831;BME280;45711;50.108;13.712;2024-01-30T07:45:25;99579.16;;;-2.59;100.00
59831;BME280;45711;50.108;13.712;2024-01-30T07:47:53;99580.50;;;-2.55;100.00
59831;BME280;45711;50.108;13.712;2024-01-30T07:50:28;99584.41;;;-2.59;100.00
59831;BME280;45711;50.108;13.712;2024-01-30T07:52:55;99580.75;;;-2.40;100.00
59831;BME280;45711;50.108;13.712;2024-01-30T07:55:21;99580.03;;;-2.50;100.00
59831;BME280;45711;50.108;13.712;2024-01-30T07:57:52;99585.75;;;-2.55;100.00
59831;BME280;45711;50.108;13.712;2024-01-30T08:00:18;99582.91;;;-2.36;100.00
59831;BME280;45711;50.108;13.712;2024-01-30T08:02:46;99581.22;;;-2.19;100.00
59831;BME280;45711;50.108;13.712;2024-01-30T08:05:12;99576.66;;;-2.43;100.00
59831;BME280;45711;50.108;13.712;2024-01-30T08:07:40;99573.00;;;-2.50;100.00
59831;BME280;45711;50.108;13.712;2024-01-30T08:10:06;99566.47;;;-2.46;100.00
59831;BME280;45711;50.108;13.712;2024-01-30T08:12:32;99579.06;;;-2.49;100.00
59831;BME280;45711;50.108;13.712;2024-01-30T08:14:57;99583.06;;;-2.63;100.00
59831;BME280;45711;50.108;13.712;2024-01-30T08:17:25;99583.06;;;-2.63;100.00
59831;BME280;45711;50.108;13.712;2024-01-30T08:19:52;99582.97;;;-2.54;100.00
59831;BME280;45711;50.108;13.712;2024-01-30T08:22:17;99587.75;;;-2.49;100.00
59831;BME280;45711;50.108;13.712;2024-01-30T08:24:43;99574.13;;;-2.53;100.00
59831;BME280;45711;50.108;13.712;2024-01-30T08:27:09;99578.28;;;-2.68;100.00
59831;BME280;45711;50.108;13.712;2024-01-30T08:29:37;99570.19;;;-2.74;100.00
59831;BME280;45711;50.108;13.712;2024-01-30T08:32:08;99584.34;;;-2.67;100.00
59831;BME280;45711;50.108;13.712;2024-01-30T08:34:34;99568.97;;;-2.62;100.00
59831;BME280;45711;50.108;13.712;2024-01-30T08:37:01;99568.75;;;-2.51;100.00
59831;BME280;45711;50.108;13.712;2024-01-30T08:39:27;99564.25;;;-2.59;100.00
59831;BME280;45711;50.108;13.712;2024-01-30T08:41:53;99564.50;;;-2.44;100.00
59831;BME280;45711;50.108;13.712;2024-01-30T08:44:18;99562.22;;;-2.47;100.00
59831;BME280;45711;50.108;13.712;2024-01-30T08:46:44;99560.41;;;-2.72;100.00
59831;BME280;45711;50.108;13.712;2024-01-30T08:49:13;99564.66;;;-2.71;100.00
59831;BME280;45711;50.108;13.712;2024-01-30T08:51:38;99562.47;;;-2.58;100.00
59831;BME280;45711;50.108;13.712;2024-01-30T08:54:09;99565.19;;;-2.42;100.00
59831;BME280;45711;50.108;13.712;2024-01-30T08:56:34;99563.84;;;-2.46;100.00
59831;BME280;45711;50.108;13.712;2024-01-30T09:02:03;99552.50;;;-2.29;100.00
59831;BME280;45711;50.108;13.712;2024-01-30T09:04:29;99550.63;;;-2.36;100.00
59831;BME280;45711;50.108;13.712;2024-01-30T09:06:55;99554.03;;;-2.44;100.00
59831;BME280;45711;50.108;13.712;2024-01-30T09:09:22;99556.81;;;-2.45;100.00
59831;BME280;45711;50.108;13.712;2024-01-30T09:11:48;99552.25;;;-2.43;100.00
59831;BME280;45711;50.108;13.712;2024-01-30T09:14:13;99552.50;;;-2.55;100.00
59831;BME280;45711;50.108;13.712;2024-01-30T09:16:39;99572.53;;;-2.19;100.00
59831;BME280;45711;50.108;13.712;2024-01-30T09:19:10;99560.56;;;-2.22;100.00
59831;BME280;45711;50.108;13.712;2024-01-30T09:21:35;99570.25;;;-2.14;100.00
59831;BME280;45711;50.108;13.712;2024-01-30T09:24:02;99559.63;;;-2.13;100.00
59831;BME280;45711;50.108;13.712;2024-01-30T09:26:31;99567.50;;;-2.13;100.00
59831;BME280;45711;50.108;13.712;2024-01-30T09:28:57;99567.50;;;-2.13;100.00
59831;BME280;45711;50.108;13.712;2024-01-30T09:31:23;99568.66;;;-2.07;100.00
59831;BME280;45711;50.108;13.712;2024-01-30T09:33:48;99578.91;;;-1.96;100.00
59831;BME280;45711;50.108;13.712;2024-01-30T09:36:16;99575.66;;;-2.16;100.00
59831;BME280;45711;50.108;13.712;2024-01-30T09:38:44;99573.41;;;-2.37;100.00
59831;BME280;45711;50.108;13.712;2024-01-30T09:41:09;99577.31;;;-2.41;100.00
59831;BME280;45711;50.108;13.712;2024-01-30T09:43:39;99581.97;;;-2.35;100.00
59831;BME280;45711;50.108;13.712;2024-01-30T09:46:12;99584.25;;;-2.32;100.00
59831;BME280;45711;50.108;13.712;2024-01-30T09:48:41;99590.53;;;-2.50;100.00
59831;BME280;45711;50.108;13.712;2024-01-30T09:51:08;99594.38;;;-2.37;100.00
59831;BME280;45711;50.108;13.712;2024-01-30T09:53:34;99605.69;;;-2.36;100.00
59831;BME280;45711;50.108;13.712;2024-01-30T09:56:02;99608.47;;;-2.12;100.00
59831;BME280;45711;50.108;13.712;2024-01-30T09:58:27;99606.75;;;-2.29;100.00
59831;BME280;45711;50.108;13.712;2024-01-30T10:00:54;99605.84;;;-2.12;100.00
59831;BME280;45711;50.108;13.712;2024-01-30T10:03:20;99610.88;;;-1.92;100.00
59831;BME280;45711;50.108;13.712;2024-01-30T10:05:50;99598.38;;;-1.98;100.00
59831;BME280;45711;50.108;13.712;2024-01-30T10:08:17;99601.31;;;-2.02;100.00
59831;BME280;45711;50.108;13.712;2024-01-30T10:10:45;99597.56;;;-1.99;100.00
59831;BME280;45711;50.108;13.712;2024-01-30T10:13:12;99586.56;;;-2.03;100.00
59831;BME280;45711;50.108;13.712;2024-01-30T10:15:38;99588.44;;;-1.87;100.00
59831;BME280;45711;50.108;13.712;2024-01-30T10:18:06;99586.03;;;-1.72;100.00
59831;BME280;45711;50.108;13.712;2024-01-30T10:20:31;99579.09;;;-1.81;100.00
59831;BME280;45711;50.108;13.712;2024-01-30T10:22:57;99584.16;;;-1.96;100.00
59831;BME280;45711;50.108;13.712;2024-01-30T10:25:26;99581.19;;;-1.93;100.00
59831;BME280;45711;50.108;13.712;2024-01-30T10:27:54;99583.34;;;-1.88;100.00
59831;BME280;45711;50.108;13.712;2024-01-30T10:30:20;99573.69;;;-1.80;100.00
59831;BME280;45711;50.108;13.712;2024-01-30T10:32:46;99574.31;;;-1.94;100.00
59831;BME280;45711;50.108;13.712;2024-01-30T10:35:13;99564.22;;;-2.07;100.00
59831;BME280;45711;50.108;13.712;2024-01-30T10:37:39;99564.63;;;-1.93;100.00
59831;BME280;45711;50.108;13.712;2024-01-30T10:40:08;99555.81;;;-2.18;100.00
59831;BME280;45711;50.108;13.712;2024-01-30T10:42:36;99550.38;;;-2.25;100.00
59831;BME280;45711;50.108;13.712;2024-01-30T10:45:07;99553.16;;;-1.84;100.00
59831;BME280;45711;50.108;13.712;2024-01-30T10:47:43;99544.03;;;-2.14;100.00
59831;BME280;45711;50.108;13.712;2024-01-30T10:50:09;99544.72;;;-2.12;100.00
59831;BME280;45711;50.108;13.712;2024-01-30T10:52:37;99540.59;;;-2.15;100.00
59831;BME280;45711;50.108;13.712;2024-01-30T10:55:04;99547.81;;;-2.17;100.00
59831;BME280;45711;50.108;13.712;2024-01-30T10:57:37;99542.25;;;-2.06;100.00
59831;BME280;45711;50.108;13.712;2024-01-30T11:00:05;99548.75;;;-1.84;100.00
59831;BME280;45711;50.108;13.712;2024-01-30T11:02:36;99546.97;;;-1.75;100.00
59831;BME280;45711;50.108;13.712;2024-01-30T11:05:04;99543.56;;;-1.67;100.00
59831;BME280;45711;50.108;13.712;2024-01-30T11:07:30;99545.19;;;-1.66;100.00
59831;BME280;45711;50.108;13.712;2024-01-30T11:10:02;99543.38;;;-1.66;100.00
59831;BME280;45711;50.108;13.712;2024-01-30T11:12:38;99536.34;;;-1.57;100.00
59831;BME280;45711;50.108;13.712;2024-01-30T11:15:08;99536.22;;;-1.47;100.00
59831;BME280;45711;50.108;13.712;2024-01-30T11:17:42;99526.34;;;-1.54;100.00
59831;BME280;45711;50.108;13.712;2024-01-30T11:20:10;99520.47;;;-1.56;100.00
59831;BME280;45711;50.108;13.712;2024-01-30T11:22:36;99514.38;;;-1.64;100.00
59831;BME280;45711;50.108;13.712;2024-01-30T11:25:03;99518.34;;;-1.52;100.00
59831;BME280;45711;50.108;13.712;2024-01-30T11:27:29;99522.59;;;-1.51;100.00
59831;BME280;45711;50.108;13.712;2024-01-30T11:30:01;99509.47;;;-1.43;100.00
59831;BME280;45711;50.108;13.712;2024-01-30T11:32:26;99514.53;;;-1.49;100.00
59831;BME280;45711;50.108;13.712;2024-01-30T11:34:53;99508.16;;;-1.47;100.00
59831;BME280;45711;50.108;13.712;2024-01-30T11:37:25;99503.06;;;-1.48;100.00
59831;BME280;45711;50.108;13.712;2024-01-30T11:39:51;99505.22;;;-1.36;100.00
59831;BME280;45711;50.108;13.712;2024-01-30T11:42:19;99504.72;;;-1.47;100.00
59831;BME280;45711;50.108;13.712;2024-01-30T11:44:46;99501.88;;;-1.62;100.00
59831;BME280;45711;50.108;13.712;2024-01-30T11:47:12;99500.59;;;-1.50;100.00
59831;BME280;45711;50.108;13.712;2024-01-30T11:49:39;99501.63;;;-1.35;100.00
59831;BME280;45711;50.108;13.712;2024-01-30T11:52:05;99501.28;;;-1.32;100.00
59831;BME280;45711;50.108;13.712;2024-01-30T11:54:31;99499.97;;;-1.19;100.00
59831;BME280;45711;50.108;13.712;2024-01-30T11:56:56;99500.16;;;-1.21;100.00
59831;BME280;45711;50.108;13.712;2024-01-30T11:59:23;99487.50;;;-1.17;100.00
59831;BME280;45711;50.108;13.712;2024-01-30T12:01:51;99499.66;;;-1.16;100.00
59831;BME280;45711;50.108;13.712;2024-01-30T12:04:17;99498.16;;;-1.03;100.00
59831;BME280;45711;50.108;13.712;2024-01-30T12:06:43;99498.00;;;-1.09;100.00
59831;BME280;45711;50.108;13.712;2024-01-30T12:09:09;99488.97;;;-1.07;100.00
59831;BME280;45711;50.108;13.712;2024-01-30T12:11:43;99480.59;;;-1.10;100.00
59831;BME280;45711;50.108;13.712;2024-01-30T12:14:09;99486.03;;;-0.95;100.00
59831;BME280;45711;50.108;13.712;2024-01-30T12:16:37;99487.47;;;-0.85;100.00
59831;BME280;45711;50.108;13.712;2024-01-30T12:19:02;99484.84;;;-0.93;100.00
59831;BME280;45711;50.108;13.712;2024-01-30T12:21:28;99485.22;;;-1.04;100.00
59831;BME280;45711;50.108;13.712;2024-01-30T12:23:54;99483.03;;;-1.01;100.00
59831;BME280;45711;50.108;13.712;2024-01-30T12:26:20;99481.59;;;-1.03;100.00
59831;BME280;45711;50.108;13.712;2024-01-30T12:28:49;99482.91;;;-1.07;100.00
59831;BME280;45711;50.108;13.712;2024-01-30T12:31:17;99489.13;;;-0.92;100.00
59831;BME280;45711;50.108;13.712;2024-01-30T12:33:44;99484.84;;;-0.85;100.00
59831;BME280;45711;50.108;13.712;2024-01-30T12:36:14;99481.25;;;-1.00;100.00
59831;BME280;45711;50.108;13.712;2024-01-30T12:38:39;99477.97;;;-1.02;100.00
59831;BME280;45711;50.108;13.712;2024-01-30T12:41:07;99474.19;;;-1.16;100.00